sensor_id;sensor_type;location;lat;lon;timestamp;P1;durP1;ratioP1;P2;durP2;ratioP2
80621;SDS011;69980;51.914;7.526;2024-03-22T00:01:51;28.58;;;22.60;;
80621;SDS011;69980;51.914;7.526;2024-03-22T00:04:17;29.02;;;22.13;;
80621;SDS011;69980;51.914;7.526;2024-03-22T00:06:43;26.20;;;20.92;;
80621;SDS011;69980;51.914;7.526;2024-03-22T00:09:11;29.95;;;23.35;;
80621;SDS011;69980;51.914;7.526;2024-03-22T00:11:39;29.38;;;21.98;;
80621;SDS011;69980;51.914;7.526;2024-03-22T00:14:05;29.77;;;22.67;;
80621;SDS011;69980;51.914;7.526;2024-03-22T00:16:30;29.15;;;21.58;;
80621;SDS011;69980;51.914;7.526;2024-03-22T00:18:55;30.33;;;22.67;;
80621;SDS011;69980;51.914;7.526;2024-03-22T00:21:21;33.15;;;25.05;;
80621;SDS011;69980;51.914;7.526;2024-03-22T00:23:47;32.97;;;24.67;;
80621;SDS011;69980;51.914;7.526;2024-03-22T00:26:12;34.10;;;24.15;;
80621;SDS011;69980;51.914;7.526;2024-03-22T00:28:37;32.63;;;24.48;;
80621;SDS011;69980;51.914;7.526;2024-03-22T00:31:03;33.22;;;24.48;;
80621;SDS011;69980;51.914;7.526;2024-03-22T00:33:28;34.85;;;24.92;;
80621;SDS011;69980;51.914;7.526;2024-03-22T00:35:53;31.73;;;24.17;;
80621;SDS011;69980;51.914;7.526;2024-03-22T00:38:19;33.22;;;24.48;;
80621;SDS011;69980;51.914;7.526;2024-03-22T00:40:44;35.65;;;25.52;;
80621;SDS011;69980;51.914;7.526;2024-03-22T00:43:09;38.42;;;24.63;;
80621;SDS011;69980;51.914;7.526;2024-03-22T00:45:34;36.40;;;24.73;;
80621;SDS011;69980;51.914;7.526;2024-03-22T00:48:00;40.47;;;26.75;;
80621;SDS011;69980;51.914;7.526;2024-03-22T00:50:25;38.20;;;25.38;;
80621;SDS011;69980;51.914;7.526;2024-03-22T00:52:50;35.28;;;24.25;;
80621;SDS011;69980;51.914;7.526;2024-03-22T00:55:16;36.53;;;24.13;;
80621;SDS011;69980;51.914;7.526;2024-03-22T00:57:41;36.20;;;23.52;;
80621;SDS011;69980;51.914;7.526;2024-03-22T01:00:06;36.50;;;25.88;;
80621;SDS011;69980;51.914;7.526;2024-03-22T01:02:32;36.75;;;24.80;;
80621;SDS011;69980;51.914;7.526;2024-03-22T01:04:57;36.65;;;24.63;;
80621;SDS011;69980;51.914;7.526;2024-03-22T01:07:23;34.53;;;24.38;;
80621;SDS011;69980;51.914;7.526;2024-03-22T01:09:48;38.08;;;25.13;;
80621;SDS011;69980;51.914;7.526;2024-03-22T01:12:13;36.35;;;24.60;;
80621;SDS011;69980;51.914;7.526;2024-03-22T01:14:38;39.63;;;26.20;;
80621;SDS011;69980;51.914;7.526;2024-03-22T01:17:04;36.10;;;23.92;;
80621;SDS011;69980;51.914;7.526;2024-03-22T01:19:29;36.92;;;24.55;;
80621;SDS011;69980;51.914;7.526;2024-03-22T01:21:54;37.38;;;24.77;;
80621;SDS011;69980;51.914;7.526;2024-03-22T01:24:20;35.95;;;24.05;;
80621;SDS011;69980;51.914;7.526;2024-03-22T01:26:45;34.53;;;23.63;;
80621;SDS011;69980;51.914;7.526;2024-03-22T01:29:10;35.85;;;22.98;;
80621;SDS011;69980;51.914;7.526;2024-03-22T01:31:35;36.13;;;23.58;;
80621;SDS011;69980;51.914;7.526;2024-03-22T01:34:01;35.67;;;23.98;;
80621;SDS011;69980;51.914;7.526;2024-03-22T01:36:26;34.42;;;23.23;;
80621;SDS011;69980;51.914;7.526;2024-03-22T01:38:51;37.03;;;24.48;;
80621;SDS011;69980;51.914;7.526;2024-03-22T01:41:17;41.20;;;24.08;;
80621;SDS011;69980;51.914;7.526;2024-03-22T01:43:42;35.15;;;22.92;;
80621;SDS011;69980;51.914;7.526;2024-03-22T01:46:07;34.58;;;22.35;;
80621;SDS011;69980;51.914;7.526;2024-03-22T01:48:33;35.28;;;21.85;;
80621;SDS011;69980;51.914;7.526;2024-03-22T01:50:59;34.20;;;22.38;;
80621;SDS011;69980;51.914;7.526;2024-03-22T01:53:24;38.60;;;23.17;;
80621;SDS011;69980;51.914;7.526;2024-03-22T01:55:50;33.58;;;21.42;;
80621;SDS011;69980;51.914;7.526;2024-03-22T01:58:15;36.03;;;22.55;;
80621;SDS011;69980;51.914;7.526;2024-03-22T02:00:41;36.05;;;21.90;;
80621;SDS011;69980;51.914;7.526;2024-03-22T02:03:08;34.65;;;21.42;;
80621;SDS011;69980;51.914;7.526;2024-03-22T02:05:33;37.85;;;22.58;;
80621;SDS011;69980;51.914;7.526;2024-03-22T02:07:58;38.60;;;23.40;;
80621;SDS011;69980;51.914;7.526;2024-03-22T02:10:24;34.92;;;22.42;;
80621;SDS011;69980;51.914;7.526;2024-03-22T02:12:49;33.78;;;20.65;;
80621;SDS011;69980;51.914;7.526;2024-03-22T02:15:14;36.83;;;22.15;;
80621;SDS011;69980;51.914;7.526;2024-03-22T02:17:39;34.90;;;21.80;;
80621;SDS011;69980;51.914;7.526;2024-03-22T02:20:05;35.78;;;21.92;;
80621;SDS011;69980;51.914;7.526;2024-03-22T02:22:31;35.85;;;22.30;;
80621;SDS011;69980;51.914;7.526;2024-03-22T02:24:56;39.13;;;22.25;;
80621;SDS011;69980;51.914;7.526;2024-03-22T02:27:21;35.55;;;22.05;;
80621;SDS011;69980;51.914;7.526;2024-03-22T02:29:47;37.38;;;22.65;;
80621;SDS011;69980;51.914;7.526;2024-03-22T02:32:12;35.13;;;21.92;;
80621;SDS011;69980;51.914;7.526;2024-03-22T02:34:37;33.83;;;20.85;;
80621;SDS011;69980;51.914;7.526;2024-03-22T02:37:03;36.97;;;21.25;;
80621;SDS011;69980;51.914;7.526;2024-03-22T02:39:28;35.20;;;21.20;;
80621;SDS011;69980;51.914;7.526;2024-03-22T02:41:53;32.33;;;20.15;;
80621;SDS011;69980;51.914;7.526;2024-03-22T02:44:19;35.58;;;21.00;;
80621;SDS011;69980;51.914;7.526;2024-03-22T02:46:44;35.20;;;20.98;;
80621;SDS011;69980;51.914;7.526;2024-03-22T02:49:10;36.30;;;20.45;;
80621;SDS011;69980;51.914;7.526;2024-03-22T02:51:35;34.22;;;20.73;;
80621;SDS011;69980;51.914;7.526;2024-03-22T02:54:00;32.15;;;20.10;;
80621;SDS011;69980;51.914;7.526;2024-03-22T02:56:26;33.63;;;19.73;;
80621;SDS011;69980;51.914;7.526;2024-03-22T02:58:52;35.92;;;21.13;;
80621;SDS011;69980;51.914;7.526;2024-03-22T03:01:17;35.78;;;22.58;;
80621;SDS011;69980;51.914;7.526;2024-03-22T03:03:43;37.80;;;21.38;;
80621;SDS011;69980;51.914;7.526;2024-03-22T03:06:08;34.38;;;21.77;;
80621;SDS011;69980;51.914;7.526;2024-03-22T03:08:33;38.35;;;22.25;;
80621;SDS011;69980;51.914;7.526;2024-03-22T03:10:59;36.25;;;21.48;;
80621;SDS011;69980;51.914;7.526;2024-03-22T03:13:24;36.28;;;22.08;;
80621;SDS011;69980;51.914;7.526;2024-03-22T03:15:49;32.40;;;19.95;;
80621;SDS011;69980;51.914;7.526;2024-03-22T03:18:14;38.92;;;21.40;;
80621;SDS011;69980;51.914;7.526;2024-03-22T03:20:40;36.13;;;21.63;;
80621;SDS011;69980;51.914;7.526;2024-03-22T03:23:05;35.35;;;20.70;;
80621;SDS011;69980;51.914;7.526;2024-03-22T03:25:30;36.22;;;20.98;;
80621;SDS011;69980;51.914;7.526;2024-03-22T03:27:56;36.15;;;20.95;;
80621;SDS011;69980;51.914;7.526;2024-03-22T03:30:21;36.80;;;21.02;;
80621;SDS011;69980;51.914;7.526;2024-03-22T03:32:46;34.92;;;20.35;;
80621;SDS011;69980;51.914;7.526;2024-03-22T03:35:11;34.35;;;20.52;;
80621;SDS011;69980;51.914;7.526;2024-03-22T03:37:37;34.35;;;21.20;;
80621;SDS011;69980;51.914;7.526;2024-03-22T03:40:02;38.90;;;22.00;;
80621;SDS011;69980;51.914;7.526;2024-03-22T03:42:28;34.47;;;20.13;;
80621;SDS011;69980;51.914;7.526;2024-03-22T03:44:53;36.40;;;20.90;;
80621;SDS011;69980;51.914;7.526;2024-03-22T03:47:18;33.90;;;21.35;;
80621;SDS011;69980;51.914;7.526;2024-03-22T03:49:47;38.75;;;22.48;;
80621;SDS011;69980;51.914;7.526;2024-03-22T03:52:12;38.08;;;21.33;;
80621;SDS011;69980;51.914;7.526;2024-03-22T03:54:37;34.50;;;20.63;;
80621;SDS011;69980;51.914;7.526;2024-03-22T03:57:03;34.47;;;19.52;;
80621;SDS011;69980;51.914;7.526;2024-03-22T03:59:29;33.10;;;20.17;;
80621;SDS011;69980;51.914;7.526;2024-03-22T04:01:54;37.78;;;20.50;;
80621;SDS011;69980;51.914;7.526;2024-03-22T04:04:19;34.28;;;19.95;;
80621;SDS011;69980;51.914;7.526;2024-03-22T04:06:44;35.70;;;20.45;;
80621;SDS011;69980;51.914;7.526;2024-03-22T04:09:10;36.72;;;20.52;;
80621;SDS011;69980;51.914;7.526;2024-03-22T04:11:35;33.75;;;20.58;;
80621;SDS011;69980;51.914;7.526;2024-03-22T04:14:00;35.83;;;20.65;;
80621;SDS011;69980;51.914;7.526;2024-03-22T04:16:26;34.00;;;20.35;;
80621;SDS011;69980;51.914;7.526;2024-03-22T04:18:51;31.88;;;20.65;;
80621;SDS011;69980;51.914;7.526;2024-03-22T04:21:16;33.20;;;19.90;;
80621;SDS011;69980;51.914;7.526;2024-03-22T04:23:42;32.90;;;19.45;;
80621;SDS011;69980;51.914;7.526;2024-03-22T04:26:07;33.88;;;20.80;;
80621;SDS011;69980;51.914;7.526;2024-03-22T04:28:32;34.03;;;20.33;;
80621;SDS011;69980;51.914;7.526;2024-03-22T04:30:58;33.60;;;19.83;;
80621;SDS011;69980;51.914;7.526;2024-03-22T04:33:24;33.65;;;20.02;;
80621;SDS011;69980;51.914;7.526;2024-03-22T04:35:49;34.28;;;20.95;;
80621;SDS011;69980;51.914;7.526;2024-03-22T04:38:15;30.15;;;20.08;;
80621;SDS011;69980;51.914;7.526;2024-03-22T04:40:40;31.30;;;20.27;;
80621;SDS011;69980;51.914;7.526;2024-03-22T04:43:06;34.72;;;20.65;;
80621;SDS011;69980;51.914;7.526;2024-03-22T04:45:31;33.20;;;19.48;;
80621;SDS011;69980;51.914;7.526;2024-03-22T04:47:56;33.50;;;21.05;;
80621;SDS011;69980;51.914;7.526;2024-03-22T04:50:22;35.80;;;21.27;;
80621;SDS011;69980;51.914;7.526;2024-03-22T04:52:47;34.97;;;22.23;;
80621;SDS011;69980;51.914;7.526;2024-03-22T04:55:12;33.17;;;19.38;;
80621;SDS011;69980;51.914;7.526;2024-03-22T04:57:37;36.80;;;21.23;;
80621;SDS011;69980;51.914;7.526;2024-03-22T05:00:03;35.17;;;21.15;;
80621;SDS011;69980;51.914;7.526;2024-03-22T05:02:28;34.67;;;21.20;;
80621;SDS011;69980;51.914;7.526;2024-03-22T05:04:54;33.55;;;21.77;;
80621;SDS011;69980;51.914;7.526;2024-03-22T05:07:19;33.42;;;20.90;;
80621;SDS011;69980;51.914;7.526;2024-03-22T05:09:44;35.03;;;20.65;;
80621;SDS011;69980;51.914;7.526;2024-03-22T05:12:10;34.63;;;21.45;;
80621;SDS011;69980;51.914;7.526;2024-03-22T05:14:35;34.90;;;21.15;;
80621;SDS011;69980;51.914;7.526;2024-03-22T05:17:00;36.30;;;20.80;;
80621;SDS011;69980;51.914;7.526;2024-03-22T05:19:25;33.55;;;19.83;;
80621;SDS011;69980;51.914;7.526;2024-03-22T05:21:51;30.35;;;20.55;;
80621;SDS011;69980;51.914;7.526;2024-03-22T05:24:16;34.20;;;21.05;;
80621;SDS011;69980;51.914;7.526;2024-03-22T05:26:41;35.42;;;21.90;;
80621;SDS011;69980;51.914;7.526;2024-03-22T05:29:06;33.72;;;20.85;;
80621;SDS011;69980;51.914;7.526;2024-03-22T05:31:32;32.92;;;20.23;;
80621;SDS011;69980;51.914;7.526;2024-03-22T05:34:10;33.17;;;21.20;;
80621;SDS011;69980;51.914;7.526;2024-03-22T05:36:36;35.13;;;20.90;;
80621;SDS011;69980;51.914;7.526;2024-03-22T05:39:01;32.58;;;21.05;;
80621;SDS011;69980;51.914;7.526;2024-03-22T05:41:26;36.47;;;21.45;;
80621;SDS011;69980;51.914;7.526;2024-03-22T05:43:52;36.05;;;20.98;;
80621;SDS011;69980;51.914;7.526;2024-03-22T05:46:17;31.33;;;20.77;;
80621;SDS011;69980;51.914;7.526;2024-03-22T05:48:42;33.25;;;20.25;;
80621;SDS011;69980;51.914;7.526;2024-03-22T05:51:07;31.90;;;20.75;;
80621;SDS011;69980;51.914;7.526;2024-03-22T05:53:33;31.90;;;20.75;;
80621;SDS011;69980;51.914;7.526;2024-03-22T05:55:58;33.90;;;20.75;;
80621;SDS011;69980;51.914;7.526;2024-03-22T05:58:23;29.20;;;19.83;;
80621;SDS011;69980;51.914;7.526;2024-03-22T06:00:49;31.33;;;19.58;;
80621;SDS011;69980;51.914;7.526;2024-03-22T06:03:14;33.72;;;20.25;;
80621;SDS011;69980;51.914;7.526;2024-03-22T06:05:39;29.83;;;20.15;;
80621;SDS011;69980;51.914;7.526;2024-03-22T06:08:05;32.33;;;20.58;;
80621;SDS011;69980;51.914;7.526;2024-03-22T06:10:30;31.58;;;20.30;;
80621;SDS011;69980;51.914;7.526;2024-03-22T06:12:55;31.23;;;19.92;;
80621;SDS011;69980;51.914;7.526;2024-03-22T06:15:21;31.17;;;19.58;;
80621;SDS011;69980;51.914;7.526;2024-03-22T06:17:46;29.92;;;19.02;;
80621;SDS011;69980;51.914;7.526;2024-03-22T06:20:11;29.63;;;19.20;;
80621;SDS011;69980;51.914;7.526;2024-03-22T06:22:36;30.02;;;19.80;;
80621;SDS011;69980;51.914;7.526;2024-03-22T06:25:02;29.13;;;19.02;;
80621;SDS011;69980;51.914;7.526;2024-03-22T06:27:27;30.08;;;19.58;;
80621;SDS011;69980;51.914;7.526;2024-03-22T06:29:52;27.95;;;18.30;;
80621;SDS011;69980;51.914;7.526;2024-03-22T06:32:18;29.75;;;19.60;;
80621;SDS011;69980;51.914;7.526;2024-03-22T06:34:43;30.70;;;19.38;;
80621;SDS011;69980;51.914;7.526;2024-03-22T06:37:08;29.85;;;18.50;;
80621;SDS011;69980;51.914;7.526;2024-03-22T06:39:33;29.67;;;19.27;;
80621;SDS011;69980;51.914;7.526;2024-03-22T06:41:59;25.95;;;17.58;;
80621;SDS011;69980;51.914;7.526;2024-03-22T06:44:24;30.70;;;18.30;;
80621;SDS011;69980;51.914;7.526;2024-03-22T06:46:49;27.38;;;17.45;;
80621;SDS011;69980;51.914;7.526;2024-03-22T06:49:15;25.35;;;18.63;;
80621;SDS011;69980;51.914;7.526;2024-03-22T06:51:40;29.48;;;17.95;;
80621;SDS011;69980;51.914;7.526;2024-03-22T06:54:05;28.23;;;18.35;;
80621;SDS011;69980;51.914;7.526;2024-03-22T06:56:30;29.33;;;19.50;;
80621;SDS011;69980;51.914;7.526;2024-03-22T06:58:56;26.63;;;17.75;;
80621;SDS011;69980;51.914;7.526;2024-03-22T07:01:21;27.88;;;18.20;;
80621;SDS011;69980;51.914;7.526;2024-03-22T07:03:46;28.10;;;17.48;;
80621;SDS011;69980;51.914;7.526;2024-03-22T07:06:12;26.98;;;17.98;;
80621;SDS011;69980;51.914;7.526;2024-03-22T07:08:38;28.65;;;18.10;;
80621;SDS011;69980;51.914;7.526;2024-03-22T07:11:07;26.42;;;17.00;;
80621;SDS011;69980;51.914;7.526;2024-03-22T07:13:32;28.27;;;17.90;;
80621;SDS011;69980;51.914;7.526;2024-03-22T07:15:57;29.38;;;18.38;;
80621;SDS011;69980;51.914;7.526;2024-03-22T07:18:23;27.27;;;17.90;;
80621;SDS011;69980;51.914;7.526;2024-03-22T07:20:48;26.35;;;17.95;;
80621;SDS011;69980;51.914;7.526;2024-03-22T07:23:13;28.27;;;17.80;;
80621;SDS011;69980;51.914;7.526;2024-03-22T07:25:38;26.02;;;17.88;;
80621;SDS011;69980;51.914;7.526;2024-03-22T07:28:04;26.85;;;18.52;;
80621;SDS011;69980;51.914;7.526;2024-03-22T07:30:29;25.80;;;18.05;;
80621;SDS011;69980;51.914;7.526;2024-03-22T07:32:55;27.67;;;17.70;;
80621;SDS011;69980;51.914;7.526;2024-03-22T07:35:20;24.85;;;16.90;;
80621;SDS011;69980;51.914;7.526;2024-03-22T07:37:45;24.25;;;17.13;;
80621;SDS011;69980;51.914;7.526;2024-03-22T07:40:10;25.35;;;17.35;;
80621;SDS011;69980;51.914;7.526;2024-03-22T07:42:36;28.80;;;17.45;;
80621;SDS011;69980;51.914;7.526;2024-03-22T07:45:01;25.80;;;17.98;;
80621;SDS011;69980;51.914;7.526;2024-03-22T07:47:26;25.77;;;17.48;;
80621;SDS011;69980;51.914;7.526;2024-03-22T07:49:52;23.50;;;17.23;;
80621;SDS011;69980;51.914;7.526;2024-03-22T07:52:17;23.20;;;15.70;;
80621;SDS011;69980;51.914;7.526;2024-03-22T07:54:42;23.10;;;16.23;;
80621;SDS011;69980;51.914;7.526;2024-03-22T07:57:07;20.80;;;16.02;;
80621;SDS011;69980;51.914;7.526;2024-03-22T07:59:33;21.05;;;15.68;;
80621;SDS011;69980;51.914;7.526;2024-03-22T08:01:58;22.65;;;16.67;;
80621;SDS011;69980;51.914;7.526;2024-03-22T08:04:23;24.67;;;16.77;;
80621;SDS011;69980;51.914;7.526;2024-03-22T08:06:50;23.02;;;14.85;;
80621;SDS011;69980;51.914;7.526;2024-03-22T08:09:15;21.20;;;15.90;;
80621;SDS011;69980;51.914;7.526;2024-03-22T08:11:41;22.42;;;15.50;;
80621;SDS011;69980;51.914;7.526;2024-03-22T08:14:06;24.23;;;16.58;;
80621;SDS011;69980;51.914;7.526;2024-03-22T08:16:34;21.65;;;15.95;;
80621;SDS011;69980;51.914;7.526;2024-03-22T08:18:59;21.63;;;16.40;;
80621;SDS011;69980;51.914;7.526;2024-03-22T08:21:24;21.63;;;16.20;;
80621;SDS011;69980;51.914;7.526;2024-03-22T08:23:50;23.27;;;15.52;;
80621;SDS011;69980;51.914;7.526;2024-03-22T08:26:15;23.33;;;15.93;;
80621;SDS011;69980;51.914;7.526;2024-03-22T08:28:41;23.98;;;16.60;;
80621;SDS011;69980;51.914;7.526;2024-03-22T08:31:06;23.98;;;16.00;;
80621;SDS011;69980;51.914;7.526;2024-03-22T08:33:31;21.48;;;15.70;;
80621;SDS011;69980;51.914;7.526;2024-03-22T08:35:57;20.65;;;15.75;;
80621;SDS011;69980;51.914;7.526;2024-03-22T08:38:22;19.60;;;15.02;;
80621;SDS011;69980;51.914;7.526;2024-03-22T08:40:50;22.10;;;15.20;;
80621;SDS011;69980;51.914;7.526;2024-03-22T08:43:15;21.63;;;14.85;;
80621;SDS011;69980;51.914;7.526;2024-03-22T08:45:42;22.05;;;15.07;;
80621;SDS011;69980;51.914;7.526;2024-03-22T08:48:07;21.83;;;15.75;;
80621;SDS011;69980;51.914;7.526;2024-03-22T08:50:33;18.23;;;14.88;;
80621;SDS011;69980;51.914;7.526;2024-03-22T08:52:58;18.83;;;14.23;;
80621;SDS011;69980;51.914;7.526;2024-03-22T08:55:24;20.25;;;14.95;;
80621;SDS011;69980;51.914;7.526;2024-03-22T08:57:49;19.77;;;13.82;;
80621;SDS011;69980;51.914;7.526;2024-03-22T09:00:14;18.63;;;13.75;;
80621;SDS011;69980;51.914;7.526;2024-03-22T09:02:40;17.38;;;13.68;;
80621;SDS011;69980;51.914;7.526;2024-03-22T09:05:05;17.35;;;13.15;;
80621;SDS011;69980;51.914;7.526;2024-03-22T09:07:31;17.95;;;13.32;;
80621;SDS011;69980;51.914;7.526;2024-03-22T09:09:56;19.02;;;13.23;;
80621;SDS011;69980;51.914;7.526;2024-03-22T09:12:22;17.40;;;13.23;;
80621;SDS011;69980;51.914;7.526;2024-03-22T09:14:47;21.55;;;13.65;;
80621;SDS011;69980;51.914;7.526;2024-03-22T09:17:12;19.15;;;13.38;;
80621;SDS011;69980;51.914;7.526;2024-03-22T09:19:37;21.40;;;13.15;;
80621;SDS011;69980;51.914;7.526;2024-03-22T09:22:03;17.50;;;12.50;;
80621;SDS011;69980;51.914;7.526;2024-03-22T09:24:28;17.27;;;12.68;;
80621;SDS011;69980;51.914;7.526;2024-03-22T09:26:53;15.40;;;11.68;;
80621;SDS011;69980;51.914;7.526;2024-03-22T09:29:19;18.20;;;12.35;;
80621;SDS011;69980;51.914;7.526;2024-03-22T09:31:44;17.67;;;12.27;;
80621;SDS011;69980;51.914;7.526;2024-03-22T09:34:12;17.50;;;12.40;;
80621;SDS011;69980;51.914;7.526;2024-03-22T09:36:37;19.92;;;13.60;;
80621;SDS011;69980;51.914;7.526;2024-03-22T09:39:03;17.77;;;12.90;;
80621;SDS011;69980;51.914;7.526;2024-03-22T09:41:28;17.13;;;12.35;;
80621;SDS011;69980;51.914;7.526;2024-03-22T09:43:57;18.10;;;12.30;;
80621;SDS011;69980;51.914;7.526;2024-03-22T09:46:23;17.63;;;12.55;;
80621;SDS011;69980;51.914;7.526;2024-03-22T09:48:48;18.05;;;12.50;;
80621;SDS011;69980;51.914;7.526;2024-03-22T09:51:17;17.42;;;12.48;;
80621;SDS011;69980;51.914;7.526;2024-03-22T09:53:45;16.98;;;12.27;;
80621;SDS011;69980;51.914;7.526;2024-03-22T09:56:14;15.98;;;12.07;;
80621;SDS011;69980;51.914;7.526;2024-03-22T09:58:40;16.98;;;12.73;;
80621;SDS011;69980;51.914;7.526;2024-03-22T10:01:06;17.35;;;11.60;;
80621;SDS011;69980;51.914;7.526;2024-03-22T10:03:31;19.08;;;12.60;;
80621;SDS011;69980;51.914;7.526;2024-03-22T10:05:56;16.88;;;12.65;;
80621;SDS011;69980;51.914;7.526;2024-03-22T10:08:21;16.80;;;12.05;;
80621;SDS011;69980;51.914;7.526;2024-03-22T10:10:47;16.65;;;12.38;;
80621;SDS011;69980;51.914;7.526;2024-03-22T10:13:12;17.70;;;12.32;;
80621;SDS011;69980;51.914;7.526;2024-03-22T10:15:37;18.83;;;13.10;;
80621;SDS011;69980;51.914;7.526;2024-03-22T10:18:03;15.80;;;12.57;;
80621;SDS011;69980;51.914;7.526;2024-03-22T10:20:29;17.98;;;13.25;;
80621;SDS011;69980;51.914;7.526;2024-03-22T10:22:58;18.38;;;13.43;;
80621;SDS011;69980;51.914;7.526;2024-03-22T10:25:24;18.90;;;12.70;;
80621;SDS011;69980;51.914;7.526;2024-03-22T10:27:50;17.42;;;13.32;;
80621;SDS011;69980;51.914;7.526;2024-03-22T10:30:16;17.65;;;13.48;;
80621;SDS011;69980;51.914;7.526;2024-03-22T10:32:42;18.77;;;13.38;;
80621;SDS011;69980;51.914;7.526;2024-03-22T10:35:07;19.10;;;14.05;;
80621;SDS011;69980;51.914;7.526;2024-03-22T10:37:36;19.38;;;13.50;;
80621;SDS011;69980;51.914;7.526;2024-03-22T10:40:02;19.45;;;14.07;;
80621;SDS011;69980;51.914;7.526;2024-03-22T10:42:28;18.92;;;12.45;;
80621;SDS011;69980;51.914;7.526;2024-03-22T10:44:53;18.02;;;13.23;;
80621;SDS011;69980;51.914;7.526;2024-03-22T10:47:18;20.58;;;13.95;;
80621;SDS011;69980;51.914;7.526;2024-03-22T10:49:45;18.65;;;14.30;;
80621;SDS011;69980;51.914;7.526;2024-03-22T10:52:11;17.02;;;13.07;;
80621;SDS011;69980;51.914;7.526;2024-03-22T10:54:40;18.80;;;14.27;;
80621;SDS011;69980;51.914;7.526;2024-03-22T10:57:06;18.25;;;14.40;;
80621;SDS011;69980;51.914;7.526;2024-03-22T10:59:35;17.67;;;13.25;;
80621;SDS011;69980;51.914;7.526;2024-03-22T11:02:03;19.27;;;13.73;;
80621;SDS011;69980;51.914;7.526;2024-03-22T11:04:29;21.23;;;14.80;;
80621;SDS011;69980;51.914;7.526;2024-03-22T11:06:56;18.83;;;15.00;;
80621;SDS011;69980;51.914;7.526;2024-03-22T11:09:22;17.98;;;14.38;;
80621;SDS011;69980;51.914;7.526;2024-03-22T11:11:47;19.38;;;14.38;;
80621;SDS011;69980;51.914;7.526;2024-03-22T11:14:12;17.92;;;14.50;;
80621;SDS011;69980;51.914;7.526;2024-03-22T11:16:38;19.67;;;15.80;;
80621;SDS011;69980;51.914;7.526;2024-03-22T11:19:04;19.25;;;14.80;;
80621;SDS011;69980;51.914;7.526;2024-03-22T11:21:32;21.90;;;15.07;;
80621;SDS011;69980;51.914;7.526;2024-03-22T11:23:57;20.60;;;15.23;;
80621;SDS011;69980;51.914;7.526;2024-03-22T11:26:23;19.20;;;14.15;;
80621;SDS011;69980;51.914;7.526;2024-03-22T11:28:48;21.52;;;16.20;;
80621;SDS011;69980;51.914;7.526;2024-03-22T11:31:13;21.92;;;15.65;;
80621;SDS011;69980;51.914;7.526;2024-03-22T11:33:39;22.02;;;16.67;;
80621;SDS011;69980;51.914;7.526;2024-03-22T11:36:04;19.73;;;15.27;;
80621;SDS011;69980;51.914;7.526;2024-03-22T11:38:31;22.25;;;16.50;;
80621;SDS011;69980;51.914;7.526;2024-03-22T11:40:57;21.48;;;16.63;;
80621;SDS011;69980;51.914;7.526;2024-03-22T11:43:23;20.73;;;15.27;;
80621;SDS011;69980;51.914;7.526;2024-03-22T11:45:48;21.20;;;16.38;;
80621;SDS011;69980;51.914;7.526;2024-03-22T11:48:13;21.10;;;16.30;;
80621;SDS011;69980;51.914;7.526;2024-03-22T11:50:39;21.70;;;17.05;;
80621;SDS011;69980;51.914;7.526;2024-03-22T11:53:07;23.17;;;17.00;;
80621;SDS011;69980;51.914;7.526;2024-03-22T11:55:32;22.05;;;16.60;;
80621;SDS011;69980;51.914;7.526;2024-03-22T11:58:00;20.88;;;16.40;;
80621;SDS011;69980;51.914;7.526;2024-03-22T12:00:26;23.17;;;15.90;;
80621;SDS011;69980;51.914;7.526;2024-03-22T12:02:52;23.95;;;17.33;;
80621;SDS011;69980;51.914;7.526;2024-03-22T12:05:18;20.20;;;16.55;;
80621;SDS011;69980;51.914;7.526;2024-03-22T12:07:46;24.10;;;17.77;;
80621;SDS011;69980;51.914;7.526;2024-03-22T12:10:12;23.00;;;16.58;;
80621;SDS011;69980;51.914;7.526;2024-03-22T12:12:37;23.08;;;17.92;;
80621;SDS011;69980;51.914;7.526;2024-03-22T12:15:03;23.38;;;18.27;;
80621;SDS011;69980;51.914;7.526;2024-03-22T12:17:29;23.48;;;17.88;;
80621;SDS011;69980;51.914;7.526;2024-03-22T12:19:54;22.80;;;18.17;;
80621;SDS011;69980;51.914;7.526;2024-03-22T12:22:21;25.67;;;19.17;;
80621;SDS011;69980;51.914;7.526;2024-03-22T12:24:47;26.92;;;19.35;;
80621;SDS011;69980;51.914;7.526;2024-03-22T12:27:12;25.65;;;18.63;;
80621;SDS011;69980;51.914;7.526;2024-03-22T12:29:37;25.60;;;18.52;;
80621;SDS011;69980;51.914;7.526;2024-03-22T12:32:02;25.08;;;19.25;;
80621;SDS011;69980;51.914;7.526;2024-03-22T12:34:28;27.42;;;19.80;;
80621;SDS011;69980;51.914;7.526;2024-03-22T12:36:53;25.52;;;17.98;;
80621;SDS011;69980;51.914;7.526;2024-03-22T12:39:18;22.63;;;17.25;;
80621;SDS011;69980;51.914;7.526;2024-03-22T12:41:44;25.17;;;19.52;;
80621;SDS011;69980;51.914;7.526;2024-03-22T12:44:09;22.75;;;16.73;;
80621;SDS011;69980;51.914;7.526;2024-03-22T12:46:34;27.40;;;18.45;;
80621;SDS011;69980;51.914;7.526;2024-03-22T12:49:00;26.00;;;18.27;;
80621;SDS011;69980;51.914;7.526;2024-03-22T12:51:25;25.35;;;19.23;;
80621;SDS011;69980;51.914;7.526;2024-03-22T12:53:50;23.02;;;17.88;;
80621;SDS011;69980;51.914;7.526;2024-03-22T12:56:15;27.55;;;18.95;;
80621;SDS011;69980;51.914;7.526;2024-03-22T12:58:41;24.15;;;18.50;;
80621;SDS011;69980;51.914;7.526;2024-03-22T13:01:06;24.85;;;17.42;;
80621;SDS011;69980;51.914;7.526;2024-03-22T13:03:33;23.23;;;17.73;;
80621;SDS011;69980;51.914;7.526;2024-03-22T13:05:58;24.17;;;18.75;;
80621;SDS011;69980;51.914;7.526;2024-03-22T13:08:23;23.98;;;18.42;;
80621;SDS011;69980;51.914;7.526;2024-03-22T13:10:49;25.02;;;19.08;;
80621;SDS011;69980;51.914;7.526;2024-03-22T13:13:14;28.27;;;18.40;;
80621;SDS011;69980;51.914;7.526;2024-03-22T13:15:39;24.08;;;18.25;;
80621;SDS011;69980;51.914;7.526;2024-03-22T13:18:05;24.38;;;18.92;;
80621;SDS011;69980;51.914;7.526;2024-03-22T13:20:30;21.85;;;17.20;;
80621;SDS011;69980;51.914;7.526;2024-03-22T13:22:56;24.02;;;18.58;;
80621;SDS011;69980;51.914;7.526;2024-03-22T13:25:21;24.15;;;18.30;;
80621;SDS011;69980;51.914;7.526;2024-03-22T13:27:46;22.67;;;18.10;;
80621;SDS011;69980;51.914;7.526;2024-03-22T13:30:11;25.08;;;19.13;;
80621;SDS011;69980;51.914;7.526;2024-03-22T13:32:37;25.45;;;18.38;;
80621;SDS011;69980;51.914;7.526;2024-03-22T13:35:03;25.90;;;18.90;;
80621;SDS011;69980;51.914;7.526;2024-03-22T13:37:29;25.15;;;18.45;;
80621;SDS011;69980;51.914;7.526;2024-03-22T13:39:54;24.58;;;18.67;;
80621;SDS011;69980;51.914;7.526;2024-03-22T13:42:19;23.63;;;18.67;;
80621;SDS011;69980;51.914;7.526;2024-03-22T13:44:45;24.33;;;19.15;;
80621;SDS011;69980;51.914;7.526;2024-03-22T13:47:10;24.40;;;19.30;;
80621;SDS011;69980;51.914;7.526;2024-03-22T13:49:36;23.77;;;18.73;;
80621;SDS011;69980;51.914;7.526;2024-03-22T13:52:01;25.65;;;18.98;;
80621;SDS011;69980;51.914;7.526;2024-03-22T13:54:26;23.80;;;18.45;;
80621;SDS011;69980;51.914;7.526;2024-03-22T13:56:51;24.90;;;18.38;;
80621;SDS011;69980;51.914;7.526;2024-03-22T13:59:17;23.70;;;18.90;;
80621;SDS011;69980;51.914;7.526;2024-03-22T14:01:42;27.08;;;19.15;;
80621;SDS011;69980;51.914;7.526;2024-03-22T14:04:09;25.17;;;18.85;;
80621;SDS011;69980;51.914;7.526;2024-03-22T14:06:35;26.45;;;19.30;;
80621;SDS011;69980;51.914;7.526;2024-03-22T14:09:00;24.85;;;19.08;;
80621;SDS011;69980;51.914;7.526;2024-03-22T14:11:25;25.75;;;18.35;;